createdAt,value
2022-12-24T00:01:06.325Z,98.95
2022-12-24T00:03:36.064Z,121.20
2022-12-24T00:08:43.229Z,106.03
2022-12-24T00:11:10.434Z,69.60
2022-12-24T00:13:38.082Z,75.32
2022-12-24T00:16:05.848Z,63.20
2022-12-24T00:18:33.069Z,50.60
2022-12-24T00:21:03.259Z,63.85
2022-12-24T00:23:30.498Z,55.05
2022-12-24T00:25:57.619Z,58.30
2022-12-24T00:28:24.766Z,61.60
2022-12-24T00:30:52.115Z,74.18
2022-12-24T00:33:24.222Z,56.90
2022-12-24T00:35:53.447Z,62.50
2022-12-24T00:38:20.802Z,72.43
2022-12-24T00:40:48.001Z,66.90
2022-12-24T00:43:15.296Z,61.10
2022-12-24T00:45:42.483Z,69.43
2022-12-24T00:48:09.667Z,63.00
2022-12-24T00:50:36.912Z,50.95
2022-12-24T00:53:04.864Z,56.80
2022-12-24T00:55:32.040Z,80.63
2022-12-24T00:57:59.215Z,110.30
2022-12-24T01:00:26.466Z,134.23
2022-12-24T01:02:59.694Z,96.80
2022-12-24T01:05:27.233Z,96.93
2022-12-24T01:07:54.448Z,123.95
2022-12-24T01:10:21.745Z,98.82
2022-12-24T01:12:48.968Z,81.82
2022-12-24T01:15:16.325Z,86.97
2022-12-24T01:17:43.615Z,84.05
2022-12-24T01:20:15.686Z,70.70
2022-12-24T01:22:42.861Z,79.63
2022-12-24T01:25:10.567Z,69.88
2022-12-24T01:27:38.225Z,58.85
2022-12-24T01:30:08.056Z,59.55
2022-12-24T01:32:35.491Z,72.68
2022-12-24T01:35:03.014Z,56.53
2022-12-24T01:37:30.198Z,56.63
2022-12-24T01:40:17.497Z,57.88
2022-12-24T01:43:07.609Z,55.65
2022-12-24T01:45:49.026Z,61.25
2022-12-24T01:48:34.169Z,56.50
2022-12-24T01:51:24.773Z,52.92
2022-12-24T01:54:26.556Z,59.15
2022-12-24T01:57:04.108Z,59.22
2022-12-24T01:59:32.722Z,49.95
2022-12-24T02:02:01.794Z,61.45
2022-12-24T02:04:39.008Z,49.03
2022-12-24T02:07:06.582Z,50.67
2022-12-24T02:09:36.240Z,49.00
2022-12-24T02:14:33.604Z,46.70
2022-12-24T02:17:29.555Z,46.23
2022-12-24T02:20:33.893Z,49.88
2022-12-24T02:23:25.214Z,42.90
2022-12-24T02:26:35.326Z,44.08
2022-12-24T02:29:14.303Z,48.67
2022-12-24T02:32:02.738Z,56.42
2022-12-24T02:34:38.647Z,49.50
2022-12-24T02:37:30.920Z,48.35
2022-12-24T02:40:15.771Z,52.67
2022-12-24T02:42:50.725Z,61.03
2022-12-24T02:45:29.431Z,60.00
2022-12-24T02:47:57.424Z,71.50
2022-12-24T02:50:26.225Z,58.63
2022-12-24T02:52:53.711Z,56.97
2022-12-24T02:55:48.729Z,54.67
2022-12-24T02:58:44.492Z,71.55
2022-12-24T03:01:29.951Z,94.00
2022-12-24T03:05:08.235Z,101.70
2022-12-24T03:08:24.842Z,93.88
2022-12-24T03:11:15.649Z,98.75
2022-12-24T03:13:44.202Z,106.22
2022-12-24T03:16:21.018Z,96.82
2022-12-24T03:18:50.294Z,64.43
2022-12-24T03:21:39.279Z,67.78
2022-12-24T03:24:06.693Z,60.28
2022-12-24T03:26:34.348Z,66.57
2022-12-24T03:29:06.616Z,71.28
2022-12-24T03:31:46.780Z,56.55
2022-12-24T03:34:15.480Z,63.50
2022-12-24T03:36:43.174Z,57.13
2022-12-24T03:39:10.833Z,65.38
2022-12-24T03:41:38.884Z,49.38
2022-12-24T03:44:06.218Z,49.28
2022-12-24T03:46:33.747Z,56.28
2022-12-24T03:49:01.056Z,57.63
2022-12-24T03:51:28.560Z,59.30
2022-12-24T03:53:56.999Z,44.88
2022-12-24T03:56:25.172Z,61.95
2022-12-24T03:58:53.021Z,49.13
2022-12-24T04:01:20.489Z,43.35
2022-12-24T04:03:47.790Z,47.42
2022-12-24T04:06:17.420Z,54.08
2022-12-24T04:08:44.848Z,52.83
2022-12-24T04:11:15.855Z,57.97
2022-12-24T04:13:43.464Z,61.08
2022-12-24T04:16:15.896Z,52.95
2022-12-24T04:18:43.279Z,52.30
2022-12-24T04:21:11.154Z,49.65
2022-12-24T04:23:40.217Z,46.60
2022-12-24T04:26:10.697Z,47.67
2022-12-24T04:28:38.968Z,43.78
2022-12-24T04:31:11.666Z,89.05
2022-12-24T04:33:39.177Z,66.68
2022-12-24T04:36:08.174Z,52.53
2022-12-24T04:38:35.443Z,54.40
2022-12-24T04:41:23.113Z,40.90
2022-12-24T04:43:53.984Z,39.70
2022-12-24T04:46:25.568Z,50.90
2022-12-24T04:48:54.329Z,70.47
2022-12-24T04:51:22.425Z,46.33
2022-12-24T04:53:50.247Z,42.95
2022-12-24T04:56:28.371Z,54.30
2022-12-24T04:58:55.862Z,39.75
2022-12-24T05:01:29.024Z,40.03
2022-12-24T05:03:57.364Z,48.97
2022-12-24T05:06:29.758Z,45.30
2022-12-24T05:08:58.848Z,55.75
2022-12-24T05:11:26.825Z,53.67
2022-12-24T05:13:54.223Z,40.75
2022-12-24T05:16:22.964Z,49.22
2022-12-24T05:18:50.942Z,47.83
2022-12-24T05:21:21.799Z,52.92
2022-12-24T05:24:08.315Z,47.00
2022-12-24T05:26:38.965Z,51.38
2022-12-24T05:29:07.433Z,45.95
2022-12-24T05:31:35.672Z,53.15
2022-12-24T05:34:03.139Z,40.85
2022-12-24T05:36:30.830Z,41.47
2022-12-24T05:38:58.410Z,40.08
2022-12-24T05:41:26.217Z,40.28
2022-12-24T05:43:53.557Z,32.83
2022-12-24T05:46:22.635Z,34.33
2022-12-24T05:48:51.798Z,36.08
2022-12-24T05:51:21.863Z,40.80
2022-12-24T05:53:50.729Z,41.65
2022-12-24T05:56:22.349Z,42.23
2022-12-24T05:58:51.541Z,43.70
2022-12-24T06:01:20.483Z,43.78
2022-12-24T06:03:49.208Z,42.85
2022-12-24T06:06:28.043Z,42.35
2022-12-24T06:08:55.625Z,42.70
2022-12-24T06:11:27.550Z,45.08
2022-12-24T06:13:55.137Z,43.83
2022-12-24T06:16:24.224Z,42.53
2022-12-24T06:18:52.280Z,40.70
2022-12-24T06:21:19.821Z,43.60
2022-12-24T06:23:47.131Z,43.05
2022-12-24T06:26:18.862Z,66.00
2022-12-24T06:28:47.791Z,56.72
2022-12-24T06:31:18.766Z,59.55
2022-12-24T06:33:46.647Z,50.05
2022-12-24T06:36:18.177Z,40.80
2022-12-24T06:38:47.657Z,42.58
2022-12-24T06:41:16.313Z,49.78
2022-12-24T06:43:46.106Z,44.58
2022-12-24T06:46:14.578Z,56.63
2022-12-24T06:48:44.207Z,44.25
2022-12-24T06:51:13.153Z,47.85
2022-12-24T06:53:40.540Z,51.95
2022-12-24T06:56:10.979Z,57.97
2022-12-24T06:58:38.764Z,42.90
2022-12-24T07:01:08.520Z,48.92
2022-12-24T07:03:35.883Z,50.42
2022-12-24T07:06:03.396Z,48.95
2022-12-24T07:08:33.438Z,53.47
2022-12-24T07:11:01.063Z,55.88
2022-12-24T07:13:28.726Z,50.80
2022-12-24T07:16:01.561Z,48.33
2022-12-24T07:18:29.405Z,59.53
2022-12-24T07:20:57.057Z,55.22
2022-12-24T07:23:24.696Z,57.13
2022-12-24T07:25:51.963Z,57.20
2022-12-24T07:28:24.032Z,54.60
2022-12-24T07:30:56.861Z,63.15
2022-12-24T07:33:25.536Z,65.95
2022-12-24T07:36:06.533Z,62.87
2022-12-24T07:38:34.823Z,61.78
2022-12-24T07:41:02.231Z,65.25
2022-12-24T07:43:29.777Z,74.22
2022-12-24T07:45:58.231Z,78.15
2022-12-24T07:48:27.442Z,77.85
2022-12-24T07:50:56.148Z,89.70
2022-12-24T07:53:24.925Z,79.43
2022-12-24T07:55:52.526Z,90.43
2022-12-24T07:58:20.065Z,81.75
2022-12-24T08:00:47.337Z,86.38
2022-12-24T08:03:21.963Z,93.75
2022-12-24T08:05:49.972Z,85.20
2022-12-24T08:08:17.149Z,79.95
2022-12-24T08:10:45.719Z,87.13
2022-12-24T08:13:13.846Z,94.70
2022-12-24T08:15:41.723Z,93.13
2022-12-24T08:18:09.687Z,88.93
2022-12-24T08:20:40.992Z,80.85
2022-12-24T08:23:08.995Z,75.43
2022-12-24T08:25:37.286Z,75.07
2022-12-24T08:28:05.926Z,71.18
2022-12-24T08:30:34.076Z,78.43
2022-12-24T08:33:01.748Z,89.97
2022-12-24T08:35:29.423Z,75.68
2022-12-24T08:37:56.681Z,78.15
2022-12-24T08:40:24.139Z,78.38
2022-12-24T08:42:51.560Z,82.25
2022-12-24T08:45:19.070Z,84.30
2022-12-24T08:47:46.243Z,91.38
2022-12-24T08:50:14.147Z,78.82
2022-12-24T08:52:41.415Z,81.95
2022-12-24T08:55:09.013Z,85.57
2022-12-24T08:57:37.531Z,83.15
2022-12-24T09:00:06.689Z,108.07
2022-12-24T09:02:34.226Z,70.55
2022-12-24T09:05:01.530Z,70.45
2022-12-24T09:07:28.835Z,80.13
2022-12-24T09:09:56.128Z,65.10
2022-12-24T09:12:23.413Z,66.43
2022-12-24T09:14:51.736Z,69.22
2022-12-24T09:17:18.962Z,70.55
2022-12-24T09:19:46.397Z,69.80
2022-12-24T09:22:14.395Z,72.18
2022-12-24T09:24:41.589Z,80.25
2022-12-24T09:27:08.807Z,77.95
2022-12-24T09:29:36.294Z,74.55
2022-12-24T09:32:03.773Z,72.82
2022-12-24T09:34:31.069Z,88.45
2022-12-24T09:36:59.563Z,83.15
2022-12-24T09:39:26.799Z,72.20
2022-12-24T09:42:35.234Z,87.22
2022-12-24T09:45:20.049Z,77.70
2022-12-24T09:48:03.579Z,91.20
2022-12-24T09:51:02.878Z,88.57
2022-12-24T09:53:52.825Z,87.38
2022-12-24T09:56:27.551Z,84.90
2022-12-24T09:59:00.217Z,78.88
2022-12-24T10:01:31.106Z,88.22
2022-12-24T10:04:09.382Z,78.68
2022-12-24T10:06:48.419Z,64.05
2022-12-24T10:09:23.837Z,44.05
2022-12-24T10:12:18.989Z,45.03
2022-12-24T10:15:25.476Z,48.42
2022-12-24T10:18:34.351Z,55.75
2022-12-24T10:21:41.726Z,63.50
2022-12-24T10:24:58.829Z,74.47
2022-12-24T10:27:33.479Z,62.83
2022-12-24T10:30:20.309Z,52.17
2022-12-24T10:32:51.006Z,51.58
2022-12-24T10:35:34.251Z,46.55
2022-12-24T10:38:03.831Z,51.97
2022-12-24T10:40:41.762Z,48.80
2022-12-24T10:43:23.354Z,65.32
2022-12-24T10:46:26.572Z,58.15
2022-12-24T10:49:00.780Z,90.18
2022-12-24T10:51:46.625Z,65.88
2022-12-24T10:54:27.507Z,59.85
2022-12-24T10:57:02.143Z,68.18
2022-12-24T10:59:50.405Z,79.47
2022-12-24T11:02:36.533Z,78.03
2022-12-24T11:05:31.728Z,71.80
2022-12-24T11:08:14.662Z,72.32
2022-12-24T11:10:59.828Z,100.63
2022-12-24T11:13:39.106Z,92.13
2022-12-24T11:16:25.069Z,83.95
2022-12-24T11:18:55.598Z,90.07
2022-12-24T11:21:28.743Z,88.25
2022-12-24T11:24:27.280Z,90.68
2022-12-24T11:27:14.789Z,110.87
2022-12-24T11:29:42.087Z,110.35
2022-12-24T11:32:20.960Z,93.50
2022-12-24T11:34:49.081Z,93.97
2022-12-24T11:37:23.729Z,86.78
2022-12-24T11:39:54.514Z,85.53
2022-12-24T11:42:37.428Z,95.60
2022-12-24T11:45:18.516Z,70.97
2022-12-24T11:47:45.840Z,90.47
2022-12-24T11:50:27.581Z,83.05
2022-12-24T11:53:19.947Z,79.68
2022-12-24T11:55:57.982Z,91.63
2022-12-24T11:58:53.037Z,91.80
2022-12-24T12:01:51.902Z,90.40
2022-12-24T12:04:35.161Z,88.10
2022-12-24T12:07:15.458Z,93.30
2022-12-24T12:09:58.897Z,92.25
2022-12-24T12:12:34.884Z,90.00
2022-12-24T12:15:12.009Z,97.78
2022-12-24T12:17:50.034Z,97.30
2022-12-24T12:20:59.102Z,91.63
2022-12-24T12:23:36.002Z,73.95
2022-12-24T12:26:26.796Z,83.22
2022-12-24T12:29:03.156Z,114.78
2022-12-24T12:31:41.833Z,113.60
2022-12-24T12:34:27.616Z,100.05
2022-12-24T12:37:01.886Z,97.28
2022-12-24T12:39:31.213Z,97.20
2022-12-24T12:45:14.908Z,79.82
2022-12-24T12:48:28.126Z,83.47
2022-12-24T12:51:02.273Z,85.28
2022-12-24T12:53:40.868Z,78.22
2022-12-24T12:56:33.436Z,77.00
2022-12-24T12:59:21.095Z,82.80
2022-12-24T13:02:28.998Z,75.82
2022-12-24T13:05:20.221Z,69.70
2022-12-24T13:08:29.785Z,56.28
2022-12-24T13:11:05.850Z,41.05
2022-12-24T13:13:44.829Z,71.68
2022-12-24T13:16:40.384Z,93.90
2022-12-24T13:19:22.930Z,86.18
2022-12-24T13:21:53.852Z,83.32
2022-12-24T13:24:25.529Z,104.47
2022-12-24T13:27:18.194Z,89.50
2022-12-24T13:30:23.736Z,85.45
2022-12-24T13:32:52.999Z,76.65
2022-12-24T13:35:20.066Z,69.00
2022-12-24T13:37:51.384Z,83.72
2022-12-24T13:40:26.823Z,76.55
2022-12-24T13:43:05.688Z,48.75
2022-12-24T13:45:38.874Z,57.33
2022-12-24T13:48:05.879Z,51.83
2022-12-24T13:50:50.595Z,47.53
2022-12-24T13:53:46.373Z,57.28
2022-12-24T13:56:13.387Z,52.70
2022-12-24T13:58:46.652Z,56.63
2022-12-24T14:01:36.616Z,54.20
2022-12-24T14:04:07.119Z,78.88
2022-12-24T14:06:41.506Z,78.70
2022-12-24T14:09:28.588Z,59.80
2022-12-24T14:11:58.795Z,58.47
2022-12-24T14:14:38.477Z,79.35
2022-12-24T14:17:27.679Z,75.60
2022-12-24T14:19:58.484Z,76.72
2022-12-24T14:22:35.789Z,76.93
2022-12-24T14:25:17.375Z,79.93
2022-12-24T14:28:05.883Z,86.30
2022-12-24T14:30:33.209Z,78.70
2022-12-24T14:33:00.481Z,78.25
2022-12-24T14:35:39.402Z,76.65
2022-12-24T14:38:18.171Z,101.32
2022-12-24T14:41:16.620Z,77.88
2022-12-24T14:44:35.522Z,84.35
2022-12-24T14:47:30.741Z,65.22
2022-12-24T14:50:35.071Z,51.05
2022-12-24T14:53:55.601Z,90.75
2022-12-24T14:56:22.918Z,104.32
2022-12-24T14:58:51.019Z,95.28
2022-12-24T15:01:31.022Z,72.80
2022-12-24T15:04:10.251Z,64.13
2022-12-24T15:06:48.944Z,53.58
2022-12-24T15:09:30.116Z,53.95
2022-12-24T15:12:02.763Z,60.65
2022-12-24T15:14:39.529Z,45.95
2022-12-24T15:17:07.861Z,50.80
2022-12-24T15:19:39.957Z,78.65
2022-12-24T15:22:36.575Z,69.90
2022-12-24T15:25:16.780Z,61.90
2022-12-24T15:27:43.985Z,60.30
2022-12-24T15:30:23.494Z,65.95
2022-12-24T15:35:50.752Z,52.17
2022-12-24T15:38:43.191Z,45.47
2022-12-24T15:41:31.103Z,42.28
2022-12-24T15:44:03.604Z,46.53
2022-12-24T15:46:32.252Z,43.33
2022-12-24T15:49:01.792Z,39.35
2022-12-24T15:54:15.821Z,46.30
2022-12-24T15:56:45.400Z,48.58
2022-12-24T15:59:19.673Z,46.33
2022-12-24T16:01:48.115Z,48.22
2022-12-24T16:04:27.287Z,55.37
2022-12-24T16:06:58.278Z,67.93
2022-12-24T16:09:43.081Z,61.95
2022-12-24T16:12:21.590Z,63.63
2022-12-24T16:15:14.078Z,53.70
2022-12-24T16:17:47.145Z,43.88
2022-12-24T16:20:21.844Z,43.72
2022-12-24T16:22:49.846Z,61.47
2022-12-24T16:25:28.369Z,63.85
2022-12-24T16:27:59.833Z,77.33
2022-12-24T16:30:28.028Z,73.50
2022-12-24T16:32:55.246Z,66.97
2022-12-24T16:35:27.191Z,71.70
2022-12-24T16:37:54.966Z,60.20
2022-12-24T16:40:27.334Z,74.95
2022-12-24T16:43:15.750Z,78.70
2022-12-24T16:45:45.198Z,62.00
2022-12-24T16:48:22.365Z,67.20
2022-12-24T16:50:52.092Z,66.78
2022-12-24T16:53:21.649Z,58.00
2022-12-24T16:58:19.391Z,68.72
2022-12-24T17:00:47.102Z,84.38
2022-12-24T17:03:14.832Z,82.63
2022-12-24T17:05:43.440Z,74.57
2022-12-24T17:08:11.906Z,40.80
2022-12-24T17:10:39.897Z,29.23
2022-12-24T17:13:07.361Z,22.70
2022-12-24T17:15:34.726Z,23.55
2022-12-24T17:18:02.517Z,24.45
2022-12-24T17:20:29.824Z,24.48
2022-12-24T17:22:58.285Z,25.60
2022-12-24T17:25:25.501Z,22.58
2022-12-24T17:27:52.751Z,23.25
2022-12-24T17:30:20.127Z,17.75
2022-12-24T17:32:47.334Z,13.48
2022-12-24T17:35:14.968Z,12.63
2022-12-24T17:37:42.128Z,19.70
2022-12-24T17:40:11.498Z,24.23
2022-12-24T17:42:38.747Z,22.30
2022-12-24T17:45:06.568Z,30.58
2022-12-24T17:47:33.804Z,47.38
2022-12-24T17:50:01.314Z,49.03
2022-12-24T17:52:28.531Z,51.08
2022-12-24T17:54:55.680Z,47.53
2022-12-24T17:57:22.925Z,31.42
2022-12-24T17:59:50.238Z,47.13
2022-12-24T18:02:17.507Z,53.67
2022-12-24T18:04:44.716Z,58.78
2022-12-24T18:07:11.870Z,59.60
2022-12-24T18:09:39.036Z,66.95
2022-12-24T18:12:06.463Z,68.68
2022-12-24T18:14:33.693Z,66.15
2022-12-24T18:17:00.929Z,79.13
2022-12-24T18:19:28.028Z,55.30
2022-12-24T18:21:55.263Z,51.55
2022-12-24T18:24:22.689Z,45.33
2022-12-24T18:26:49.860Z,42.97
2022-12-24T18:29:17.512Z,50.17
2022-12-24T18:31:44.740Z,42.10
2022-12-24T18:34:13.672Z,40.83
2022-12-24T18:36:41.514Z,30.92
2022-12-24T18:39:08.744Z,35.67
2022-12-24T18:41:36.092Z,36.83
2022-12-24T18:44:03.592Z,37.72
2022-12-24T18:46:33.287Z,32.60
2022-12-24T18:49:01.856Z,39.58
2022-12-24T18:51:34.695Z,39.63
2022-12-24T18:54:05.243Z,43.92
2022-12-24T18:56:32.843Z,44.80
2022-12-24T18:59:01.940Z,44.05
2022-12-24T19:01:32.991Z,46.17
2022-12-24T19:04:01.336Z,46.67
2022-12-24T19:06:28.921Z,35.88
2022-12-24T19:08:58.204Z,35.75
2022-12-24T19:11:30.931Z,30.35
2022-12-24T19:13:58.972Z,24.40
2022-12-24T19:16:28.832Z,21.98
2022-12-24T19:18:57.057Z,22.38
2022-12-24T19:21:24.696Z,35.42
2022-12-24T19:23:52.371Z,34.20
2022-12-24T19:26:20.948Z,26.35
2022-12-24T19:28:48.887Z,38.17
2022-12-24T19:31:20.331Z,31.98
2022-12-24T19:33:50.831Z,63.33
2022-12-24T19:36:21.567Z,79.03
2022-12-24T19:38:49.145Z,68.88
2022-12-24T19:41:21.742Z,74.45
2022-12-24T19:43:52.302Z,71.57
2022-12-24T19:46:29.106Z,37.83
2022-12-24T19:49:00.236Z,50.35
2022-12-24T19:51:29.068Z,56.50
2022-12-24T19:53:58.012Z,56.28
2022-12-24T19:56:27.609Z,61.92
2022-12-24T19:58:56.851Z,57.60
2022-12-24T20:01:27.265Z,34.17
2022-12-24T20:03:55.095Z,48.45
2022-12-24T20:06:26.860Z,45.42
2022-12-24T20:09:04.418Z,32.55
2022-12-24T20:11:32.724Z,38.00
2022-12-24T20:14:01.960Z,39.30
2022-12-24T20:16:30.158Z,55.15
2022-12-24T20:19:02.849Z,68.65
2022-12-24T20:21:30.874Z,78.63
2022-12-24T20:23:58.174Z,65.07
2022-12-24T20:26:28.090Z,55.38
2022-12-24T20:28:56.061Z,38.28
2022-12-24T20:31:28.134Z,32.95
2022-12-24T20:34:01.359Z,35.83
2022-12-24T20:36:30.533Z,36.95
2022-12-24T20:38:59.262Z,36.67
2022-12-24T20:41:28.864Z,40.72
2022-12-24T20:44:01.031Z,37.58
2022-12-24T20:46:30.442Z,39.72
2022-12-24T20:51:27.890Z,30.05
2022-12-24T20:53:59.023Z,67.05
2022-12-24T20:56:26.968Z,46.08
2022-12-24T20:58:54.335Z,61.83
2022-12-24T21:01:25.394Z,37.35
2022-12-24T21:03:55.001Z,31.73
2022-12-24T21:08:52.205Z,26.85
2022-12-24T21:11:38.687Z,30.45
2022-12-24T21:14:06.365Z,31.10
2022-12-24T21:16:34.774Z,30.13
2022-12-24T21:19:02.411Z,30.73
2022-12-24T21:21:29.806Z,35.35
2022-12-24T21:23:57.509Z,26.73
2022-12-24T21:26:24.721Z,24.48
2022-12-24T21:28:52.666Z,32.92
2022-12-24T21:31:20.384Z,32.35
2022-12-24T21:33:47.555Z,23.48
2022-12-24T21:36:15.630Z,25.90
2022-12-24T21:38:43.027Z,18.30
2022-12-24T21:41:15.096Z,11.57
2022-12-24T21:43:43.629Z,8.13
2022-12-24T21:46:22.485Z,6.90
2022-12-24T21:49:10.895Z,29.92
2022-12-24T21:51:39.027Z,7.82
2022-12-24T21:54:25.270Z,5.32
2022-12-24T21:57:23.522Z,6.95
2022-12-24T21:59:53.564Z,4.93
2022-12-24T22:02:27.352Z,5.70
2022-12-24T22:04:54.694Z,4.97
2022-12-24T22:07:46.256Z,5.20
2022-12-24T22:10:32.724Z,6.47
2022-12-24T22:13:05.497Z,4.28
2022-12-24T22:15:34.582Z,8.63
2022-12-24T22:18:02.028Z,5.38
2022-12-24T22:20:29.375Z,6.15
2022-12-24T22:22:56.560Z,6.22
2022-12-24T22:25:23.657Z,7.72
2022-12-24T22:27:51.051Z,6.38
2022-12-24T22:30:18.285Z,5.95
2022-12-24T22:32:45.469Z,8.40
2022-12-24T22:35:12.779Z,10.60
2022-12-24T22:37:39.902Z,5.07
2022-12-24T22:40:08.622Z,4.55
2022-12-24T22:42:36.434Z,3.75
2022-12-24T22:45:05.314Z,6.57
2022-12-24T22:47:33.510Z,5.10
2022-12-24T22:50:00.713Z,5.90
2022-12-24T22:52:30.509Z,4.88
2022-12-24T22:54:57.852Z,7.13
2022-12-24T22:57:25.112Z,7.40
2022-12-24T22:59:52.282Z,8.95
2022-12-24T23:02:25.876Z,5.78
2022-12-24T23:04:55.857Z,8.02
2022-12-24T23:07:23.028Z,9.95
2022-12-24T23:09:50.384Z,9.30
2022-12-24T23:12:37.495Z,7.18
2022-12-24T23:15:05.376Z,7.72
2022-12-24T23:17:32.539Z,5.05
2022-12-24T23:20:02.056Z,6.90
2022-12-24T23:24:56.348Z,6.57
2022-12-24T23:27:23.564Z,10.40
2022-12-24T23:29:50.725Z,8.82
2022-12-24T23:32:18.038Z,10.27
2022-12-24T23:34:45.115Z,5.90
2022-12-24T23:37:12.428Z,9.98
2022-12-24T23:39:39.742Z,9.13
2022-12-24T23:42:06.811Z,14.95
2022-12-24T23:44:33.966Z,10.85
2022-12-24T23:47:01.339Z,11.20
2022-12-24T23:49:28.530Z,12.02
2022-12-24T23:51:55.615Z,11.57
2022-12-24T23:54:22.726Z,13.20
2022-12-24T23:56:49.998Z,13.05
2022-12-24T23:59:17.083Z,10.48
